sensor_id;sensor_type;location;lat;lon;timestamp;P1;durP1;ratioP1;P2;durP2;ratioP2
842;SDS011;407;48.884;9.126;2023-03-23T00:02:19;5.43;;;1.20;;
842;SDS011;407;48.884;9.126;2023-03-23T00:04:51;5.80;;;1.40;;
842;SDS011;407;48.884;9.126;2023-03-23T00:07:18;5.95;;;1.20;;
842;SDS011;407;48.884;9.126;2023-03-23T00:09:46;5.43;;;1.30;;
842;SDS011;407;48.884;9.126;2023-03-23T00:12:22;5.18;;;1.30;;
842;SDS011;407;48.884;9.126;2023-03-23T00:14:54;5.30;;;1.30;;
842;SDS011;407;48.884;9.126;2023-03-23T00:17:20;5.60;;;1.40;;
842;SDS011;407;48.884;9.126;2023-03-23T00:19:46;5.20;;;1.40;;
842;SDS011;407;48.884;9.126;2023-03-23T00:22:13;6.20;;;1.50;;
842;SDS011;407;48.884;9.126;2023-03-23T00:24:39;5.25;;;1.30;;
842;SDS011;407;48.884;9.126;2023-03-23T00:27:06;6.70;;;1.20;;
842;SDS011;407;48.884;9.126;2023-03-23T00:29:31;5.38;;;1.40;;
842;SDS011;407;48.884;9.126;2023-03-23T00:31:57;5.10;;;1.30;;
842;SDS011;407;48.884;9.126;2023-03-23T00:34:23;6.57;;;1.40;;
842;SDS011;407;48.884;9.126;2023-03-23T00:36:51;5.50;;;1.40;;
842;SDS011;407;48.884;9.126;2023-03-23T00:39:21;5.28;;;1.10;;
842;SDS011;407;48.884;9.126;2023-03-23T00:41:49;5.05;;;1.27;;
842;SDS011;407;48.884;9.126;2023-03-23T00:44:15;5.80;;;1.40;;
842;SDS011;407;48.884;9.126;2023-03-23T00:46:47;5.50;;;1.60;;
842;SDS011;407;48.884;9.126;2023-03-23T00:49:15;6.50;;;1.33;;
842;SDS011;407;48.884;9.126;2023-03-23T00:51:42;5.95;;;1.55;;
842;SDS011;407;48.884;9.126;2023-03-23T00:54:08;5.60;;;1.30;;
842;SDS011;407;48.884;9.126;2023-03-23T00:56:35;6.85;;;1.50;;
842;SDS011;407;48.884;9.126;2023-03-23T00:59:02;5.28;;;1.42;;
842;SDS011;407;48.884;9.126;2023-03-23T01:01:28;5.93;;;1.23;;
842;SDS011;407;48.884;9.126;2023-03-23T01:03:53;7.40;;;1.40;;
842;SDS011;407;48.884;9.126;2023-03-23T01:06:25;6.30;;;1.30;;
842;SDS011;407;48.884;9.126;2023-03-23T01:08:55;6.10;;;1.50;;
842;SDS011;407;48.884;9.126;2023-03-23T01:11:21;5.30;;;1.15;;
842;SDS011;407;48.884;9.126;2023-03-23T01:13:47;5.30;;;1.50;;
842;SDS011;407;48.884;9.126;2023-03-23T01:16:13;5.80;;;1.50;;
842;SDS011;407;48.884;9.126;2023-03-23T01:18:38;6.75;;;1.40;;
842;SDS011;407;48.884;9.126;2023-03-23T01:21:05;5.60;;;1.40;;
842;SDS011;407;48.884;9.126;2023-03-23T01:23:32;6.10;;;1.70;;
842;SDS011;407;48.884;9.126;2023-03-23T01:26:02;5.40;;;1.20;;
842;SDS011;407;48.884;9.126;2023-03-23T01:28:38;7.45;;;1.40;;
842;SDS011;407;48.884;9.126;2023-03-23T01:31:06;5.20;;;1.50;;
842;SDS011;407;48.884;9.126;2023-03-23T01:33:33;6.65;;;1.50;;
842;SDS011;407;48.884;9.126;2023-03-23T01:36:07;5.30;;;1.48;;
842;SDS011;407;48.884;9.126;2023-03-23T01:38:35;6.97;;;1.42;;
842;SDS011;407;48.884;9.126;2023-03-23T01:41:02;6.23;;;1.90;;
842;SDS011;407;48.884;9.126;2023-03-23T01:43:28;5.20;;;1.20;;
842;SDS011;407;48.884;9.126;2023-03-23T01:46:00;6.00;;;1.50;;
842;SDS011;407;48.884;9.126;2023-03-23T01:51:01;6.10;;;1.55;;
842;SDS011;407;48.884;9.126;2023-03-23T01:53:36;6.90;;;1.77;;
842;SDS011;407;48.884;9.126;2023-03-23T01:56:07;6.30;;;1.65;;
842;SDS011;407;48.884;9.126;2023-03-23T01:58:38;5.65;;;1.30;;
842;SDS011;407;48.884;9.126;2023-03-23T02:01:06;6.10;;;1.40;;
842;SDS011;407;48.884;9.126;2023-03-23T02:03:36;5.70;;;1.50;;
842;SDS011;407;48.884;9.126;2023-03-23T02:06:04;6.07;;;1.80;;
842;SDS011;407;48.884;9.126;2023-03-23T02:08:30;6.00;;;1.47;;
842;SDS011;407;48.884;9.126;2023-03-23T02:10:57;5.60;;;1.50;;
842;SDS011;407;48.884;9.126;2023-03-23T02:13:23;6.82;;;1.30;;
842;SDS011;407;48.884;9.126;2023-03-23T02:16:34;5.50;;;1.60;;
842;SDS011;407;48.884;9.126;2023-03-23T02:19:24;6.70;;;1.50;;
842;SDS011;407;48.884;9.126;2023-03-23T02:35:56;6.88;;;1.75;;
842;SDS011;407;48.884;9.126;2023-03-23T02:39:01;6.00;;;1.90;;
842;SDS011;407;48.884;9.126;2023-03-23T02:41:38;6.90;;;1.95;;
842;SDS011;407;48.884;9.126;2023-03-23T02:44:11;5.70;;;1.65;;
842;SDS011;407;48.884;9.126;2023-03-23T02:46:40;6.40;;;1.85;;
842;SDS011;407;48.884;9.126;2023-03-23T02:49:07;6.40;;;1.63;;
842;SDS011;407;48.884;9.126;2023-03-23T02:51:35;6.53;;;1.77;;
842;SDS011;407;48.884;9.126;2023-03-23T02:54:03;5.70;;;1.80;;
842;SDS011;407;48.884;9.126;2023-03-23T02:56:30;5.90;;;1.80;;
842;SDS011;407;48.884;9.126;2023-03-23T02:58:57;6.50;;;1.60;;
842;SDS011;407;48.884;9.126;2023-03-23T03:03:59;6.00;;;2.00;;
842;SDS011;407;48.884;9.126;2023-03-23T03:09:01;6.10;;;1.63;;
842;SDS011;407;48.884;9.126;2023-03-23T03:11:36;5.87;;;1.60;;
842;SDS011;407;48.884;9.126;2023-03-23T03:14:08;6.20;;;1.90;;
842;SDS011;407;48.884;9.126;2023-03-23T03:17:05;7.20;;;2.00;;
842;SDS011;407;48.884;9.126;2023-03-23T03:19:38;6.85;;;1.90;;
842;SDS011;407;48.884;9.126;2023-03-23T03:22:07;5.82;;;1.83;;
842;SDS011;407;48.884;9.126;2023-03-23T03:24:33;6.57;;;1.95;;
842;SDS011;407;48.884;9.126;2023-03-23T03:27:02;5.80;;;1.58;;
842;SDS011;407;48.884;9.126;2023-03-23T03:29:35;6.27;;;1.67;;
842;SDS011;407;48.884;9.126;2023-03-23T03:32:06;5.85;;;1.55;;
842;SDS011;407;48.884;9.126;2023-03-23T03:34:37;5.38;;;1.27;;
842;SDS011;407;48.884;9.126;2023-03-23T03:37:04;5.70;;;1.40;;
842;SDS011;407;48.884;9.126;2023-03-23T03:39:31;5.57;;;1.58;;
842;SDS011;407;48.884;9.126;2023-03-23T03:42:01;5.43;;;1.55;;
842;SDS011;407;48.884;9.126;2023-03-23T03:44:26;6.43;;;1.67;;
842;SDS011;407;48.884;9.126;2023-03-23T03:46:52;6.00;;;1.50;;
842;SDS011;407;48.884;9.126;2023-03-23T03:49:18;5.97;;;1.70;;
842;SDS011;407;48.884;9.126;2023-03-23T03:51:43;6.57;;;1.37;;
842;SDS011;407;48.884;9.126;2023-03-23T03:54:09;5.70;;;1.60;;
842;SDS011;407;48.884;9.126;2023-03-23T03:56:35;5.70;;;1.30;;
842;SDS011;407;48.884;9.126;2023-03-23T03:59:05;5.72;;;1.50;;
842;SDS011;407;48.884;9.126;2023-03-23T04:01:32;5.85;;;1.75;;
842;SDS011;407;48.884;9.126;2023-03-23T04:03:59;5.40;;;1.60;;
842;SDS011;407;48.884;9.126;2023-03-23T04:06:25;6.40;;;1.40;;
842;SDS011;407;48.884;9.126;2023-03-23T04:08:53;5.70;;;1.50;;
842;SDS011;407;48.884;9.126;2023-03-23T04:11:20;6.07;;;1.50;;
842;SDS011;407;48.884;9.126;2023-03-23T04:13:45;6.32;;;1.90;;
842;SDS011;407;48.884;9.126;2023-03-23T04:16:11;5.40;;;1.70;;
842;SDS011;407;48.884;9.126;2023-03-23T04:18:37;6.40;;;2.10;;
842;SDS011;407;48.884;9.126;2023-03-23T04:21:03;5.40;;;1.50;;
842;SDS011;407;48.884;9.126;2023-03-23T04:23:32;6.38;;;1.70;;
842;SDS011;407;48.884;9.126;2023-03-23T04:26:00;6.90;;;1.80;;
842;SDS011;407;48.884;9.126;2023-03-23T04:28:26;6.88;;;1.60;;
842;SDS011;407;48.884;9.126;2023-03-23T04:30:53;6.50;;;1.80;;
842;SDS011;407;48.884;9.126;2023-03-23T04:33:20;6.30;;;1.55;;
842;SDS011;407;48.884;9.126;2023-03-23T04:35:54;6.30;;;1.60;;
842;SDS011;407;48.884;9.126;2023-03-23T04:38:22;5.97;;;1.92;;
842;SDS011;407;48.884;9.126;2023-03-23T04:40:50;6.00;;;1.80;;
842;SDS011;407;48.884;9.126;2023-03-23T04:43:17;5.40;;;1.60;;
842;SDS011;407;48.884;9.126;2023-03-23T04:45:46;7.57;;;1.88;;
842;SDS011;407;48.884;9.126;2023-03-23T04:48:12;5.60;;;1.45;;
842;SDS011;407;48.884;9.126;2023-03-23T04:50:38;5.80;;;1.30;;
842;SDS011;407;48.884;9.126;2023-03-23T04:53:04;5.85;;;1.67;;
842;SDS011;407;48.884;9.126;2023-03-23T04:55:31;6.20;;;1.60;;
842;SDS011;407;48.884;9.126;2023-03-23T04:58:04;8.00;;;1.70;;
842;SDS011;407;48.884;9.126;2023-03-23T05:00:34;7.10;;;1.90;;
842;SDS011;407;48.884;9.126;2023-03-23T05:03:00;6.18;;;1.50;;
842;SDS011;407;48.884;9.126;2023-03-23T05:05:26;7.30;;;1.40;;
842;SDS011;407;48.884;9.126;2023-03-23T05:07:54;5.60;;;1.60;;
842;SDS011;407;48.884;9.126;2023-03-23T05:10:20;6.40;;;1.50;;
842;SDS011;407;48.884;9.126;2023-03-23T05:12:46;5.32;;;1.40;;
842;SDS011;407;48.884;9.126;2023-03-23T05:15:12;5.73;;;1.30;;
842;SDS011;407;48.884;9.126;2023-03-23T05:17:39;5.60;;;1.60;;
842;SDS011;407;48.884;9.126;2023-03-23T05:20:12;5.50;;;1.30;;
842;SDS011;407;48.884;9.126;2023-03-23T05:22:39;8.77;;;1.60;;
842;SDS011;407;48.884;9.126;2023-03-23T05:25:06;6.10;;;1.50;;
842;SDS011;407;48.884;9.126;2023-03-23T05:27:38;6.40;;;1.40;;
842;SDS011;407;48.884;9.126;2023-03-23T05:30:07;6.70;;;1.70;;
842;SDS011;407;48.884;9.126;2023-03-23T05:32:33;6.18;;;1.58;;
842;SDS011;407;48.884;9.126;2023-03-23T05:34:59;6.40;;;1.97;;
842;SDS011;407;48.884;9.126;2023-03-23T05:37:25;5.90;;;1.50;;
842;SDS011;407;48.884;9.126;2023-03-23T05:39:53;7.10;;;1.90;;
842;SDS011;407;48.884;9.126;2023-03-23T05:42:23;5.55;;;1.50;;
842;SDS011;407;48.884;9.126;2023-03-23T05:44:49;5.50;;;1.50;;
842;SDS011;407;48.884;9.126;2023-03-23T05:47:15;5.50;;;1.60;;
842;SDS011;407;48.884;9.126;2023-03-23T05:49:41;6.00;;;1.30;;
842;SDS011;407;48.884;9.126;2023-03-23T05:52:07;11.67;;;1.60;;
842;SDS011;407;48.884;9.126;2023-03-23T05:54:32;6.97;;;1.80;;
842;SDS011;407;48.884;9.126;2023-03-23T05:56:59;5.50;;;1.70;;
842;SDS011;407;48.884;9.126;2023-03-23T05:59:24;5.60;;;1.50;;
842;SDS011;407;48.884;9.126;2023-03-23T06:01:51;8.18;;;1.83;;
842;SDS011;407;48.884;9.126;2023-03-23T06:04:18;6.00;;;1.70;;
842;SDS011;407;48.884;9.126;2023-03-23T06:06:44;7.03;;;1.60;;
842;SDS011;407;48.884;9.126;2023-03-23T06:09:10;6.27;;;1.50;;
842;SDS011;407;48.884;9.126;2023-03-23T06:11:36;6.70;;;1.60;;
842;SDS011;407;48.884;9.126;2023-03-23T06:14:02;5.80;;;1.50;;
842;SDS011;407;48.884;9.126;2023-03-23T06:16:28;7.43;;;1.90;;
842;SDS011;407;48.884;9.126;2023-03-23T06:18:54;7.50;;;1.70;;
842;SDS011;407;48.884;9.126;2023-03-23T06:21:21;6.40;;;1.75;;
842;SDS011;407;48.884;9.126;2023-03-23T06:23:47;8.70;;;1.70;;
842;SDS011;407;48.884;9.126;2023-03-23T06:26:13;7.80;;;1.90;;
842;SDS011;407;48.884;9.126;2023-03-23T06:28:42;6.40;;;1.60;;
842;SDS011;407;48.884;9.126;2023-03-23T06:31:08;5.70;;;1.60;;
842;SDS011;407;48.884;9.126;2023-03-23T06:33:34;5.75;;;1.80;;
842;SDS011;407;48.884;9.126;2023-03-23T06:36:01;6.90;;;1.73;;
842;SDS011;407;48.884;9.126;2023-03-23T06:38:27;7.50;;;1.60;;
842;SDS011;407;48.884;9.126;2023-03-23T06:40:53;5.80;;;1.80;;
842;SDS011;407;48.884;9.126;2023-03-23T06:43:20;6.60;;;1.70;;
842;SDS011;407;48.884;9.126;2023-03-23T06:45:46;6.95;;;1.83;;
842;SDS011;407;48.884;9.126;2023-03-23T06:48:11;6.60;;;1.97;;
842;SDS011;407;48.884;9.126;2023-03-23T06:50:38;6.33;;;1.93;;
842;SDS011;407;48.884;9.126;2023-03-23T06:53:03;6.00;;;1.70;;
842;SDS011;407;48.884;9.126;2023-03-23T06:55:30;6.10;;;1.70;;
842;SDS011;407;48.884;9.126;2023-03-23T06:57:56;6.00;;;2.00;;
842;SDS011;407;48.884;9.126;2023-03-23T07:00:24;6.88;;;1.67;;
842;SDS011;407;48.884;9.126;2023-03-23T07:02:50;6.45;;;1.80;;
842;SDS011;407;48.884;9.126;2023-03-23T07:05:16;8.80;;;1.70;;
842;SDS011;407;48.884;9.126;2023-03-23T07:07:41;6.30;;;1.55;;
842;SDS011;407;48.884;9.126;2023-03-23T07:10:07;6.60;;;1.80;;
842;SDS011;407;48.884;9.126;2023-03-23T07:12:35;5.97;;;1.63;;
842;SDS011;407;48.884;9.126;2023-03-23T07:15:01;6.60;;;1.70;;
842;SDS011;407;48.884;9.126;2023-03-23T07:17:28;6.93;;;1.92;;
842;SDS011;407;48.884;9.126;2023-03-23T07:19:53;7.37;;;1.80;;
842;SDS011;407;48.884;9.126;2023-03-23T07:22:19;6.40;;;1.75;;
842;SDS011;407;48.884;9.126;2023-03-23T07:24:45;8.60;;;2.20;;
842;SDS011;407;48.884;9.126;2023-03-23T07:27:10;6.30;;;2.10;;
842;SDS011;407;48.884;9.126;2023-03-23T07:29:36;8.40;;;2.28;;
842;SDS011;407;48.884;9.126;2023-03-23T07:32:03;6.65;;;1.70;;
842;SDS011;407;48.884;9.126;2023-03-23T07:34:29;6.10;;;2.00;;
842;SDS011;407;48.884;9.126;2023-03-23T07:36:58;5.90;;;1.80;;
842;SDS011;407;48.884;9.126;2023-03-23T07:39:24;6.25;;;1.83;;
842;SDS011;407;48.884;9.126;2023-03-23T07:41:50;7.70;;;2.05;;
842;SDS011;407;48.884;9.126;2023-03-23T07:44:16;6.68;;;1.70;;
842;SDS011;407;48.884;9.126;2023-03-23T07:46:42;7.60;;;2.15;;
842;SDS011;407;48.884;9.126;2023-03-23T07:49:08;5.87;;;1.70;;
842;SDS011;407;48.884;9.126;2023-03-23T07:51:35;6.80;;;1.77;;
842;SDS011;407;48.884;9.126;2023-03-23T07:54:03;5.82;;;1.50;;
842;SDS011;407;48.884;9.126;2023-03-23T07:56:29;5.47;;;1.30;;
842;SDS011;407;48.884;9.126;2023-03-23T07:58:55;5.93;;;1.50;;
842;SDS011;407;48.884;9.126;2023-03-23T08:01:21;7.22;;;1.50;;
842;SDS011;407;48.884;9.126;2023-03-23T08:03:48;10.80;;;1.70;;
842;SDS011;407;48.884;9.126;2023-03-23T08:06:15;10.70;;;1.90;;
842;SDS011;407;48.884;9.126;2023-03-23T08:08:42;7.07;;;1.80;;
842;SDS011;407;48.884;9.126;2023-03-23T08:11:07;6.57;;;1.75;;
842;SDS011;407;48.884;9.126;2023-03-23T08:13:33;7.30;;;1.90;;
842;SDS011;407;48.884;9.126;2023-03-23T08:16:00;6.70;;;1.80;;
842;SDS011;407;48.884;9.126;2023-03-23T08:18:29;6.60;;;1.80;;
842;SDS011;407;48.884;9.126;2023-03-23T08:20:56;6.20;;;1.60;;
842;SDS011;407;48.884;9.126;2023-03-23T08:23:23;5.70;;;1.75;;
842;SDS011;407;48.884;9.126;2023-03-23T08:25:48;5.80;;;1.40;;
842;SDS011;407;48.884;9.126;2023-03-23T08:28:14;5.85;;;1.50;;
842;SDS011;407;48.884;9.126;2023-03-23T08:30:40;5.60;;;1.50;;
842;SDS011;407;48.884;9.126;2023-03-23T08:33:06;6.28;;;1.42;;
842;SDS011;407;48.884;9.126;2023-03-23T08:35:35;5.50;;;1.40;;
842;SDS011;407;48.884;9.126;2023-03-23T08:38:01;5.25;;;1.10;;
842;SDS011;407;48.884;9.126;2023-03-23T08:40:28;6.55;;;2.30;;
842;SDS011;407;48.884;9.126;2023-03-23T08:42:54;6.80;;;1.70;;
842;SDS011;407;48.884;9.126;2023-03-23T08:45:21;7.40;;;1.67;;
842;SDS011;407;48.884;9.126;2023-03-23T08:47:48;5.88;;;1.77;;
842;SDS011;407;48.884;9.126;2023-03-23T08:50:21;7.10;;;1.90;;
842;SDS011;407;48.884;9.126;2023-03-23T08:52:51;6.60;;;1.70;;
842;SDS011;407;48.884;9.126;2023-03-23T08:55:18;5.97;;;1.60;;
842;SDS011;407;48.884;9.126;2023-03-23T08:57:44;5.90;;;1.80;;
842;SDS011;407;48.884;9.126;2023-03-23T09:00:12;6.82;;;2.00;;
842;SDS011;407;48.884;9.126;2023-03-23T09:02:43;6.88;;;1.77;;
842;SDS011;407;48.884;9.126;2023-03-23T09:05:10;8.57;;;2.05;;
842;SDS011;407;48.884;9.126;2023-03-23T09:07:39;7.37;;;1.73;;
842;SDS011;407;48.884;9.126;2023-03-23T09:10:08;7.20;;;1.50;;
842;SDS011;407;48.884;9.126;2023-03-23T09:12:35;6.07;;;1.37;;
842;SDS011;407;48.884;9.126;2023-03-23T09:15:01;5.30;;;1.40;;
842;SDS011;407;48.884;9.126;2023-03-23T09:17:44;6.30;;;1.45;;
842;SDS011;407;48.884;9.126;2023-03-23T09:20:13;6.13;;;1.60;;
842;SDS011;407;48.884;9.126;2023-03-23T09:22:42;11.32;;;1.67;;
842;SDS011;407;48.884;9.126;2023-03-23T09:25:11;8.80;;;1.90;;
842;SDS011;407;48.884;9.126;2023-03-23T09:27:38;9.00;;;1.77;;
842;SDS011;407;48.884;9.126;2023-03-23T09:30:07;5.60;;;1.70;;
842;SDS011;407;48.884;9.126;2023-03-23T09:32:35;6.25;;;1.70;;
842;SDS011;407;48.884;9.126;2023-03-23T09:35:03;5.90;;;1.70;;
842;SDS011;407;48.884;9.126;2023-03-23T09:37:33;10.02;;;2.08;;
842;SDS011;407;48.884;9.126;2023-03-23T09:40:01;7.80;;;2.90;;
842;SDS011;407;48.884;9.126;2023-03-23T09:48:44;7.00;;;1.70;;
842;SDS011;407;48.884;9.126;2023-03-23T09:53:45;7.90;;;1.50;;
842;SDS011;407;48.884;9.126;2023-03-23T09:56:19;5.43;;;1.40;;
842;SDS011;407;48.884;9.126;2023-03-23T09:58:53;5.80;;;1.80;;
842;SDS011;407;48.884;9.126;2023-03-23T10:01:33;5.78;;;1.40;;
842;SDS011;407;48.884;9.126;2023-03-23T10:04:05;7.10;;;2.00;;
842;SDS011;407;48.884;9.126;2023-03-23T10:06:37;5.95;;;1.70;;
842;SDS011;407;48.884;9.126;2023-03-23T10:09:04;5.97;;;1.45;;
842;SDS011;407;48.884;9.126;2023-03-23T10:17:07;5.63;;;1.35;;
842;SDS011;407;48.884;9.126;2023-03-23T10:19:49;5.88;;;1.20;;
842;SDS011;407;48.884;9.126;2023-03-23T10:22:26;6.00;;;1.60;;
842;SDS011;407;48.884;9.126;2023-03-23T10:25:00;5.80;;;1.50;;
842;SDS011;407;48.884;9.126;2023-03-23T10:28:11;5.50;;;1.40;;
842;SDS011;407;48.884;9.126;2023-03-23T10:35:37;6.10;;;1.50;;
842;SDS011;407;48.884;9.126;2023-03-23T10:38:14;6.00;;;1.40;;
842;SDS011;407;48.884;9.126;2023-03-23T10:40:59;8.60;;;1.70;;
842;SDS011;407;48.884;9.126;2023-03-23T10:43:30;5.40;;;1.70;;
842;SDS011;407;48.884;9.126;2023-03-23T10:46:08;5.70;;;1.60;;
842;SDS011;407;48.884;9.126;2023-03-23T10:48:45;5.50;;;1.10;;
842;SDS011;407;48.884;9.126;2023-03-23T10:51:13;7.63;;;1.67;;
842;SDS011;407;48.884;9.126;2023-03-23T10:53:44;6.53;;;1.30;;
842;SDS011;407;48.884;9.126;2023-03-23T10:58:52;5.88;;;1.30;;
842;SDS011;407;48.884;9.126;2023-03-23T11:01:20;6.50;;;1.90;;
842;SDS011;407;48.884;9.126;2023-03-23T11:03:56;5.70;;;1.30;;
842;SDS011;407;48.884;9.126;2023-03-23T11:06:34;5.72;;;1.15;;
842;SDS011;407;48.884;9.126;2023-03-23T11:09:11;5.70;;;1.40;;
842;SDS011;407;48.884;9.126;2023-03-23T11:11:40;6.57;;;1.35;;
842;SDS011;407;48.884;9.126;2023-03-23T11:14:24;5.40;;;1.38;;
842;SDS011;407;48.884;9.126;2023-03-23T11:16:57;7.15;;;1.38;;
842;SDS011;407;48.884;9.126;2023-03-23T11:19:32;6.57;;;1.27;;
842;SDS011;407;48.884;9.126;2023-03-23T11:24:31;6.45;;;1.50;;
842;SDS011;407;48.884;9.126;2023-03-23T11:26:59;5.50;;;1.45;;
842;SDS011;407;48.884;9.126;2023-03-23T11:29:26;5.95;;;1.50;;
842;SDS011;407;48.884;9.126;2023-03-23T11:32:04;6.10;;;1.43;;
842;SDS011;407;48.884;9.126;2023-03-23T11:34:35;5.50;;;1.30;;
842;SDS011;407;48.884;9.126;2023-03-23T11:37:10;5.85;;;1.77;;
842;SDS011;407;48.884;9.126;2023-03-23T11:39:53;5.47;;;1.40;;
842;SDS011;407;48.884;9.126;2023-03-23T11:45:19;7.20;;;1.60;;
842;SDS011;407;48.884;9.126;2023-03-23T11:50:33;6.20;;;1.63;;
842;SDS011;407;48.884;9.126;2023-03-23T11:53:12;6.55;;;1.50;;
842;SDS011;407;48.884;9.126;2023-03-23T11:58:50;5.65;;;1.40;;
842;SDS011;407;48.884;9.126;2023-03-23T12:04:19;6.17;;;1.60;;
842;SDS011;407;48.884;9.126;2023-03-23T12:06:54;6.15;;;1.60;;
842;SDS011;407;48.884;9.126;2023-03-23T12:28:15;5.60;;;1.60;;
842;SDS011;407;48.884;9.126;2023-03-23T12:31:36;9.13;;;2.10;;
842;SDS011;407;48.884;9.126;2023-03-23T12:34:11;5.80;;;1.90;;
842;SDS011;407;48.884;9.126;2023-03-23T12:36:50;8.63;;;1.92;;
842;SDS011;407;48.884;9.126;2023-03-23T12:47:45;6.05;;;1.90;;
842;SDS011;407;48.884;9.126;2023-03-23T12:53:02;9.23;;;1.70;;
842;SDS011;407;48.884;9.126;2023-03-23T12:55:46;7.00;;;2.13;;
842;SDS011;407;48.884;9.126;2023-03-23T12:58:34;6.40;;;1.55;;
842;SDS011;407;48.884;9.126;2023-03-23T13:06:43;7.22;;;2.13;;
842;SDS011;407;48.884;9.126;2023-03-23T13:09:18;6.43;;;2.00;;
842;SDS011;407;48.884;9.126;2023-03-23T13:12:04;7.35;;;2.10;;
842;SDS011;407;48.884;9.126;2023-03-23T13:25:46;6.22;;;2.00;;
842;SDS011;407;48.884;9.126;2023-03-23T13:28:16;6.60;;;2.20;;
842;SDS011;407;48.884;9.126;2023-03-23T13:31:22;8.63;;;2.90;;
842;SDS011;407;48.884;9.126;2023-03-23T13:33:51;7.38;;;1.88;;
842;SDS011;407;48.884;9.126;2023-03-23T13:36:31;9.95;;;2.13;;
842;SDS011;407;48.884;9.126;2023-03-23T13:39:06;7.20;;;2.40;;
842;SDS011;407;48.884;9.126;2023-03-23T13:42:26;6.25;;;2.20;;
842;SDS011;407;48.884;9.126;2023-03-23T13:47:20;7.80;;;2.10;;
842;SDS011;407;48.884;9.126;2023-03-23T13:50:10;6.50;;;2.10;;
842;SDS011;407;48.884;9.126;2023-03-23T13:57:57;8.60;;;2.10;;
842;SDS011;407;48.884;9.126;2023-03-23T14:03:02;7.50;;;2.53;;
842;SDS011;407;48.884;9.126;2023-03-23T14:05:38;8.80;;;1.98;;
842;SDS011;407;48.884;9.126;2023-03-23T14:08:20;6.00;;;1.87;;
842;SDS011;407;48.884;9.126;2023-03-23T14:10:59;6.10;;;1.95;;
842;SDS011;407;48.884;9.126;2023-03-23T14:16:39;5.93;;;1.70;;
842;SDS011;407;48.884;9.126;2023-03-23T14:19:17;7.20;;;2.00;;
842;SDS011;407;48.884;9.126;2023-03-23T14:21:50;7.10;;;1.90;;
842;SDS011;407;48.884;9.126;2023-03-23T14:24:19;6.53;;;2.10;;
842;SDS011;407;48.884;9.126;2023-03-23T14:29:30;5.60;;;1.70;;
842;SDS011;407;48.884;9.126;2023-03-23T14:31:56;6.93;;;2.10;;
842;SDS011;407;48.884;9.126;2023-03-23T14:34:27;8.27;;;2.50;;
842;SDS011;407;48.884;9.126;2023-03-23T14:36:56;7.60;;;2.20;;
842;SDS011;407;48.884;9.126;2023-03-23T14:39:27;6.78;;;2.25;;
842;SDS011;407;48.884;9.126;2023-03-23T14:41:55;7.22;;;2.10;;
842;SDS011;407;48.884;9.126;2023-03-23T14:44:28;6.07;;;2.00;;
842;SDS011;407;48.884;9.126;2023-03-23T14:46:55;6.03;;;2.00;;
842;SDS011;407;48.884;9.126;2023-03-23T14:49:30;6.23;;;2.00;;
842;SDS011;407;48.884;9.126;2023-03-23T14:54:39;7.60;;;2.00;;
842;SDS011;407;48.884;9.126;2023-03-23T14:57:15;7.10;;;2.10;;
842;SDS011;407;48.884;9.126;2023-03-23T14:59:42;6.80;;;2.30;;
842;SDS011;407;48.884;9.126;2023-03-23T15:02:13;7.07;;;2.17;;
842;SDS011;407;48.884;9.126;2023-03-23T15:04:48;6.97;;;2.00;;
842;SDS011;407;48.884;9.126;2023-03-23T15:07:17;6.70;;;2.05;;
842;SDS011;407;48.884;9.126;2023-03-23T15:09:44;6.33;;;1.90;;
842;SDS011;407;48.884;9.126;2023-03-23T15:12:20;6.65;;;2.30;;
842;SDS011;407;48.884;9.126;2023-03-23T15:14:53;5.80;;;1.80;;
842;SDS011;407;48.884;9.126;2023-03-23T15:17:22;6.05;;;2.00;;
842;SDS011;407;48.884;9.126;2023-03-23T15:19:50;6.25;;;2.00;;
842;SDS011;407;48.884;9.126;2023-03-23T15:22:24;6.20;;;2.00;;
842;SDS011;407;48.884;9.126;2023-03-23T15:27:44;6.60;;;2.28;;
842;SDS011;407;48.884;9.126;2023-03-23T15:32:53;7.15;;;1.92;;
842;SDS011;407;48.884;9.126;2023-03-23T15:35:36;6.63;;;2.30;;
842;SDS011;407;48.884;9.126;2023-03-23T15:38:05;6.60;;;1.90;;
842;SDS011;407;48.884;9.126;2023-03-23T15:40:42;6.00;;;1.80;;
842;SDS011;407;48.884;9.126;2023-03-23T15:45:51;6.90;;;2.30;;
842;SDS011;407;48.884;9.126;2023-03-23T15:48:19;7.60;;;2.40;;
842;SDS011;407;48.884;9.126;2023-03-23T15:50:45;6.30;;;2.10;;
842;SDS011;407;48.884;9.126;2023-03-23T15:53:19;6.50;;;2.00;;
842;SDS011;407;48.884;9.126;2023-03-23T15:56:03;7.17;;;1.70;;
842;SDS011;407;48.884;9.126;2023-03-23T15:58:30;8.75;;;2.20;;
842;SDS011;407;48.884;9.126;2023-03-23T16:00:57;8.48;;;2.20;;
842;SDS011;407;48.884;9.126;2023-03-23T16:03:28;6.93;;;1.95;;
842;SDS011;407;48.884;9.126;2023-03-23T16:06:08;7.32;;;2.50;;
842;SDS011;407;48.884;9.126;2023-03-23T16:08:38;7.32;;;1.90;;
842;SDS011;407;48.884;9.126;2023-03-23T16:11:10;7.78;;;2.20;;
842;SDS011;407;48.884;9.126;2023-03-23T16:13:37;6.78;;;2.05;;
842;SDS011;407;48.884;9.126;2023-03-23T16:16:03;5.80;;;1.90;;
842;SDS011;407;48.884;9.126;2023-03-23T16:18:31;5.93;;;1.90;;
842;SDS011;407;48.884;9.126;2023-03-23T16:20:56;8.00;;;2.10;;
842;SDS011;407;48.884;9.126;2023-03-23T16:23:22;7.65;;;1.90;;
842;SDS011;407;48.884;9.126;2023-03-23T16:25:48;6.50;;;1.90;;
842;SDS011;407;48.884;9.126;2023-03-23T16:28:14;6.70;;;2.00;;
842;SDS011;407;48.884;9.126;2023-03-23T16:30:41;5.82;;;2.00;;
842;SDS011;407;48.884;9.126;2023-03-23T16:33:08;6.85;;;2.30;;
842;SDS011;407;48.884;9.126;2023-03-23T16:35:35;6.70;;;2.20;;
842;SDS011;407;48.884;9.126;2023-03-23T16:38:01;7.30;;;2.10;;
842;SDS011;407;48.884;9.126;2023-03-23T16:40:28;6.90;;;2.00;;
842;SDS011;407;48.884;9.126;2023-03-23T16:42:54;6.60;;;2.20;;
842;SDS011;407;48.884;9.126;2023-03-23T16:45:20;8.10;;;2.03;;
842;SDS011;407;48.884;9.126;2023-03-23T16:47:46;7.40;;;1.90;;
842;SDS011;407;48.884;9.126;2023-03-23T16:50:15;6.47;;;1.80;;
842;SDS011;407;48.884;9.126;2023-03-23T16:52:42;6.88;;;2.20;;
842;SDS011;407;48.884;9.126;2023-03-23T16:55:11;8.75;;;2.00;;
842;SDS011;407;48.884;9.126;2023-03-23T16:57:37;7.53;;;2.05;;
842;SDS011;407;48.884;9.126;2023-03-23T17:00:05;9.23;;;1.80;;
842;SDS011;407;48.884;9.126;2023-03-23T17:02:34;8.30;;;1.98;;
842;SDS011;407;48.884;9.126;2023-03-23T17:05:00;6.80;;;2.30;;
842;SDS011;407;48.884;9.126;2023-03-23T17:07:27;7.05;;;2.10;;
842;SDS011;407;48.884;9.126;2023-03-23T17:09:53;7.00;;;2.20;;
842;SDS011;407;48.884;9.126;2023-03-23T17:12:18;7.80;;;2.30;;
842;SDS011;407;48.884;9.126;2023-03-23T17:14:44;6.80;;;2.20;;
842;SDS011;407;48.884;9.126;2023-03-23T17:17:10;6.60;;;2.20;;
842;SDS011;407;48.884;9.126;2023-03-23T17:19:36;6.77;;;2.00;;
842;SDS011;407;48.884;9.126;2023-03-23T17:22:01;7.40;;;2.80;;
842;SDS011;407;48.884;9.126;2023-03-23T17:24:27;9.82;;;2.30;;
842;SDS011;407;48.884;9.126;2023-03-23T17:26:53;7.97;;;2.40;;
842;SDS011;407;48.884;9.126;2023-03-23T17:29:19;10.45;;;2.30;;
842;SDS011;407;48.884;9.126;2023-03-23T17:31:46;6.40;;;2.20;;
842;SDS011;407;48.884;9.126;2023-03-23T17:34:13;7.35;;;2.20;;
842;SDS011;407;48.884;9.126;2023-03-23T17:36:38;8.93;;;2.60;;
842;SDS011;407;48.884;9.126;2023-03-23T17:39:04;6.80;;;2.40;;
842;SDS011;407;48.884;9.126;2023-03-23T17:41:30;9.30;;;2.40;;
842;SDS011;407;48.884;9.126;2023-03-23T17:43:56;7.30;;;2.60;;
842;SDS011;407;48.884;9.126;2023-03-23T17:46:21;6.00;;;2.05;;
842;SDS011;407;48.884;9.126;2023-03-23T17:48:51;6.40;;;2.00;;
842;SDS011;407;48.884;9.126;2023-03-23T17:51:17;6.03;;;1.90;;
842;SDS011;407;48.884;9.126;2023-03-23T17:53:43;6.63;;;1.90;;
842;SDS011;407;48.884;9.126;2023-03-23T17:56:08;7.60;;;1.90;;
842;SDS011;407;48.884;9.126;2023-03-23T17:58:34;6.70;;;1.80;;
842;SDS011;407;48.884;9.126;2023-03-23T18:01:00;7.20;;;2.10;;
842;SDS011;407;48.884;9.126;2023-03-23T18:03:26;6.05;;;1.70;;
842;SDS011;407;48.884;9.126;2023-03-23T18:05:56;6.30;;;1.90;;
842;SDS011;407;48.884;9.126;2023-03-23T18:08:28;7.82;;;1.90;;
842;SDS011;407;48.884;9.126;2023-03-23T18:10:55;6.90;;;2.00;;
842;SDS011;407;48.884;9.126;2023-03-23T18:13:22;5.80;;;1.60;;